M I D A S
Marine Information and Data Acquisition System
Tripno 1258 of the Zeeleeuw from 2007-02-16 07:38:04 to 2007-02-16 14:00:57
Back to CruiseResearch ActivitiesStationsMapUnderway DataData graphs

EquipmentUnitsComment
TimeDGPSUTC
LatitudeDGPSDM.mWGS84
LongitudeDGPSDM.mWGS84
HeadingGyrodeg 
SOGDGPSknotsSpeed over ground
COGDGPSdegCourse over ground
DepthEcho soundermeters200 kHz
Missing or incorrect values are displayed as -999
Navigation data collected by the RV Zeeleeuw from 2007-02-16 07:38:14 to 2007-02-16 14:07:54
                                                                                    Next 1000 lines
Time Latitude Longitude Heading SOG COG Depth
2007-02-16 07:38:24 51°13.598 2°56.094 127.2 0.1 110 6.1
2007-02-16 07:38:29 51°13.597 2°56.094 127.3 0.1 115 6
2007-02-16 07:38:34 51°13.597 2°56.094 127 -999 169 6
2007-02-16 07:38:39 51°13.598 2°56.094 126.6 -999 350 6.1
2007-02-16 07:38:45 51°13.598 2°56.094 126.5 -999 238 6
2007-02-16 07:38:50 51°13.598 2°56.094 126.4 -999 4 6.1
2007-02-16 07:38:54 51°13.598 2°56.094 126.4 -999 85 6.1
2007-02-16 07:39:00 51°13.598 2°56.094 126.4 -999 60 6.1
2007-02-16 07:39:04 51°13.598 2°56.094 126.4 -999 25 6
2007-02-16 07:39:09 51°13.598 2°56.094 126.4 -999 34 6.1
2007-02-16 07:39:14 51°13.598 2°56.094 126.3 -999 323 6.1
2007-02-16 07:39:20 51°13.598 2°56.094 126.2 -999 64 6.1
2007-02-16 07:39:24 51°13.598 2°56.094 126.2 -999 82 6.1
2007-02-16 07:39:29 51°13.598 2°56.094 126.2 -999 125 6
2007-02-16 07:39:35 51°13.597 2°56.093 126.2 -999 46 6
2007-02-16 07:39:40 51°13.597 2°56.093 126.2 -999 212 6
2007-02-16 07:39:44 51°13.597 2°56.093 126.2 -999 25 6
2007-02-16 07:39:49 51°13.597 2°56.093 126.2 -999 343 6.1
2007-02-16 07:39:55 51°13.597 2°56.094 126.2 -999 329 6.1
2007-02-16 07:40:00 51°13.597 2°56.093 126.2 -999 103 6
2007-02-16 07:40:04 51°13.597 2°56.094 126.2 0.1 83 6.1
2007-02-16 07:40:10 51°13.597 2°56.093 126.2 -999 333 6.1
2007-02-16 07:40:14 51°13.597 2°56.093 126.2 -999 49 6.1
2007-02-16 07:40:20 51°13.598 2°56.093 126.2 -999 70 6.1
2007-02-16 07:40:24 51°13.598 2°56.094 126 -999 142 6.1
2007-02-16 07:40:29 51°13.598 2°56.094 125.2 0.1 165 6.1
2007-02-16 07:40:34 51°13.598 2°56.094 124.4 -999 210 6.2
2007-02-16 07:40:39 51°13.598 2°56.094 123.5 0.1 191 6.1
2007-02-16 07:40:44 51°13.598 2°56.094 122.6 0.1 158 6.1
2007-02-16 07:40:49 51°13.598 2°56.094 121.4 0.1 177 6.1
2007-02-16 07:40:55 51°13.598 2°56.094 120.1 0.1 184 6.1
2007-02-16 07:41:00 51°13.598 2°56.094 118.7 0.1 188 6.1
2007-02-16 07:41:04 51°13.598 2°56.094 117.2 0.1 183 6.2
2007-02-16 07:41:10 51°13.598 2°56.094 115.7 -999 260 6.2
2007-02-16 07:41:15 51°13.598 2°56.093 114.3 0.2 286 6.4
2007-02-16 07:41:20 51°13.598 2°56.093 113.6 0.4 298 6.3
2007-02-16 07:41:24 51°13.598 2°56.091 113 0.6 296 6.3
2007-02-16 07:41:29 51°13.599 2°56.09 112.6 0.8 297 6.3
2007-02-16 07:41:34 51°13.599 2°56.088 112.5 1.1 295 6.4
2007-02-16 07:41:40 51°13.6 2°56.085 112.5 1.4 296 6.4
2007-02-16 07:41:44 51°13.601 2°56.082 112.6 1.7 295 6.7
2007-02-16 07:41:50 51°13.603 2°56.078 112.7 2 294 -999
2007-02-16 07:41:55 51°13.604 2°56.073 112.7 2.3 292 4.8
2007-02-16 07:42:00 51°13.605 2°56.068 112.5 2.6 290 -999
2007-02-16 07:42:06 51°13.607 2°56.062 112.4 2.6 290 -999
2007-02-16 07:42:12 51°13.608 2°56.055 112.2 2.6 290 -999
2007-02-16 07:42:17 51°13.609 2°56.049 112.2 2.6 289 -999
2007-02-16 07:42:23 51°13.61 2°56.042 112.5 2.7 291 -999
2007-02-16 07:42:28 51°13.611 2°56.037 112.9 2.7 291 -999
2007-02-16 07:42:33 51°13.613 2°56.031 113.4 2.8 292 -999
2007-02-16 07:42:38 51°13.614 2°56.025 113.9 2.8 292 -999
2007-02-16 07:42:43 51°13.616 2°56.019 114.2 2.9 292 -999
2007-02-16 07:42:48 51°13.617 2°56.013 114.8 2.9 292 -999
2007-02-16 07:42:53 51°13.619 2°56.007 115.3 3 293 -999
2007-02-16 07:42:58 51°13.621 2°56.001 115.8 3 294 -999
2007-02-16 07:43:03 51°13.623 2°55.995 116.2 3.1 294 -999
2007-02-16 07:43:08 51°13.625 2°55.988 117.2 3.3 294 -999
2007-02-16 07:43:13 51°13.627 2°55.982 117.9 3.3 296 -999
2007-02-16 07:43:18 51°13.629 2°55.975 119 3.3 296 -999
2007-02-16 07:43:23 51°13.63 2°55.969 119.7 3.2 297 -999
2007-02-16 07:43:28 51°13.632 2°55.963 120.3 3.1 298 -999
2007-02-16 07:43:33 51°13.635 2°55.957 120.7 3.1 298 -999
2007-02-16 07:43:38 51°13.637 2°55.95 120.9 3.2 299 4.7
2007-02-16 07:43:43 51°13.639 2°55.944 120.9 3.3 298 4.6
2007-02-16 07:43:47 51°13.641 2°55.939 120.9 3.3 298 4.8
2007-02-16 07:43:53 51°13.643 2°55.931 120.9 3.3 298 -999
2007-02-16 07:43:58 51°13.645 2°55.925 120.8 3.3 298 -999
2007-02-16 07:44:03 51°13.648 2°55.918 120.5 3.3 298 -999
2007-02-16 07:44:08 51°13.65 2°55.912 120.1 3.3 298 -999
2007-02-16 07:44:13 51°13.652 2°55.905 119.7 3.4 297 4.5
2007-02-16 07:44:18 51°13.654 2°55.898 119.2 3.4 297 4.7
2007-02-16 07:44:23 51°13.656 2°55.891 118.5 3.5 295 -999
2007-02-16 07:44:28 51°13.658 2°55.884 117.9 3.5 295 -999
2007-02-16 07:44:33 51°13.66 2°55.877 117.3 3.5 294 -999
2007-02-16 07:44:38 51°13.662 2°55.87 116.8 3.5 294 -999
2007-02-16 07:44:43 51°13.664 2°55.863 115.8 3.5 293 -999
2007-02-16 07:44:48 51°13.666 2°55.856 114.7 3.5 293 -999
2007-02-16 07:44:53 51°13.668 2°55.849 113.7 3.4 292 -999
2007-02-16 07:44:58 51°13.67 2°55.842 112.7 3.3 291 -999
2007-02-16 07:45:03 51°13.671 2°55.835 111.5 3.2 291 -999
2007-02-16 07:45:08 51°13.672 2°55.829 110.9 3.1 290 9
2007-02-16 07:45:13 51°13.674 2°55.822 110.1 3.1 289 8.8
2007-02-16 07:45:17 51°13.675 2°55.817 109.4 3 288 9
2007-02-16 07:45:22 51°13.676 2°55.811 108.1 2.9 288 8.9
2007-02-16 07:45:27 51°13.677 2°55.805 106.7 2.8 287 9
2007-02-16 07:45:32 51°13.678 2°55.799 105.3 2.8 285 9.1
2007-02-16 07:45:37 51°13.679 2°55.793 103.5 2.8 284 9.3
2007-02-16 07:45:42 51°13.68 2°55.787 101.6 2.7 282 9.7
2007-02-16 07:45:46 51°13.68 2°55.783 99.7 2.6 281 9.9
2007-02-16 07:45:52 51°13.681 2°55.776 97.9 2.6 279 10.1
2007-02-16 07:45:56 51°13.682 2°55.772 96 2.5 278 10.3
2007-02-16 07:46:01 51°13.682 2°55.766 94.3 2.4 278 10.4
2007-02-16 07:46:06 51°13.682 2°55.761 92.7 2.3 276 10
2007-02-16 07:46:11 51°13.683 2°55.756 91 2.2 275 9.7
2007-02-16 07:46:16 51°13.683 2°55.752 89.3 2.1 273 9.7
2007-02-16 07:46:20 51°13.683 2°55.748 87.7 2 272 9.7
2007-02-16 07:46:25 51°13.683 2°55.744 86.1 1.8 270 9.8
2007-02-16 07:46:30 51°13.683 2°55.74 84.5 1.7 270 10.3
2007-02-16 07:46:35 51°13.683 2°55.737 82.9 1.5 269 10.9
2007-02-16 07:46:40 51°13.683 2°55.734 81.2 1.3 266 11.8
2007-02-16 07:46:45 51°13.683 2°55.732 79.1 1.1 268 12
2007-02-16 07:46:49 51°13.683 2°55.731 76.8 0.8 275 12
2007-02-16 07:46:54 51°13.683 2°55.73 74.4 0.4 296 12.1
2007-02-16 07:47:00 51°13.683 2°55.73 71.1 0.5 19 12.2
2007-02-16 07:47:05 51°13.685 2°55.731 66.5 1 39 12.3
2007-02-16 07:47:09 51°13.686 2°55.733 60.6 1.4 35 11.9
2007-02-16 07:47:14 51°13.688 2°55.735 53.7 1.9 34 11.7
2007-02-16 07:47:20 51°13.691 2°55.738 46.4 2.4 28 11.7
2007-02-16 07:47:25 51°13.695 2°55.74 38.4 2.8 21 11.7
2007-02-16 07:47:30 51°13.699 2°55.742 30 3.2 16 11.9
2007-02-16 07:47:34 51°13.703 2°55.743 21.4 3.6 9 12
2007-02-16 07:47:39 51°13.708 2°55.743 12.5 3.5 358 11.7
2007-02-16 07:47:44 51°13.713 2°55.742 4.3 3.4 353 12
2007-02-16 07:47:50 51°13.719 2°55.74 358.2 3.4 347 11.5
2007-02-16 07:47:54 51°13.722 2°55.738 353 3.4 342 11.2
2007-02-16 07:47:59 51°13.727 2°55.735 347.6 3.6 337 10.6
2007-02-16 07:48:04 51°13.731 2°55.731 341.9 3.8 332 10.5
2007-02-16 07:48:09 51°13.736 2°55.727 338 4.1 332 10
2007-02-16 07:48:15 51°13.742 2°55.721 335.8 4.4 329 10.4
2007-02-16 07:48:20 51°13.748 2°55.716 334.5 4.8 329 10.5
2007-02-16 07:48:24 51°13.753 2°55.711 334.1 5.1 328 10.4
2007-02-16 07:48:30 51°13.76 2°55.704 333.8 5.4 328 10.3
2007-02-16 07:48:35 51°13.767 2°55.697 333.4 5.6 327 10
2007-02-16 07:48:40 51°13.774 2°55.69 333.1 5.9 328 9.4
2007-02-16 07:48:44 51°13.779 2°55.684 332.9 6.1 327 9.3
2007-02-16 07:48:49 51°13.787 2°55.676 332.7 6.3 328 9.4
2007-02-16 07:48:55 51°13.796 2°55.667 332.6 6.5 328 9.7
2007-02-16 07:49:00 51°13.804 2°55.66 333.2 6.7 330 9.7
2007-02-16 07:49:04 51°13.811 2°55.654 334.5 6.8 331 10
2007-02-16 07:49:09 51°13.819 2°55.647 336.2 6.9 333 10.2
2007-02-16 07:49:14 51°13.828 2°55.64 337.7 7.1 334 10.2
2007-02-16 07:49:20 51°13.839 2°55.632 338.6 7.2 335 10.2
2007-02-16 07:49:24 51°13.846 2°55.626 339 7.2 335 10.1
2007-02-16 07:49:29 51°13.855 2°55.619 339.4 7.3 335 10.3
2007-02-16 07:49:34 51°13.864 2°55.612 339.6 7.4 335 10.2
2007-02-16 07:49:40 51°13.876 2°55.604 339.6 7.5 335 10.2
2007-02-16 07:49:44 51°13.883 2°55.598 339.7 7.5 334 10.2
2007-02-16 07:49:50 51°13.895 2°55.59 339.6 7.6 335 10.2
2007-02-16 07:49:54 51°13.902 2°55.584 339.6 7.7 334 10.2
2007-02-16 07:49:59 51°13.912 2°55.577 339.7 7.7 335 10.3
2007-02-16 07:50:05 51°13.924 2°55.568 339.9 7.7 335 10.3
2007-02-16 07:50:10 51°13.933 2°55.561 339.9 7.7 335 10.3
2007-02-16 07:50:14 51°13.941 2°55.555 340.3 7.7 335 10.3
2007-02-16 07:50:19 51°13.951 2°55.548 340.4 7.8 335 10.3
2007-02-16 07:50:24 51°13.96 2°55.541 340.4 7.8 335 10.2
2007-02-16 07:50:30 51°13.972 2°55.532 340.4 7.8 336 10.3
2007-02-16 07:50:34 51°13.98 2°55.527 340.4 7.8 336 10.3
2007-02-16 07:50:40 51°13.992 2°55.519 340.9 7.8 337 10.3
2007-02-16 07:50:44 51°14 2°55.513 341.5 7.8 336 10.3
2007-02-16 07:50:49 51°14.01 2°55.506 341.5 7.8 336 10.3
2007-02-16 07:50:55 51°14.022 2°55.497 341.4 7.9 336 10.3
2007-02-16 07:51:00 51°14.032 2°55.49 341.3 7.9 336 10.3
2007-02-16 07:51:04 51°14.04 2°55.485 341.7 7.9 336 10.4
2007-02-16 07:51:10 51°14.052 2°55.476 341.8 7.9 336 -999
2007-02-16 07:51:15 51°14.062 2°55.469 341.6 7.9 336 -999
2007-02-16 07:51:21 51°14.074 2°55.461 341.4 7.9 337 -999
2007-02-16 07:51:25 51°14.082 2°55.455 341.6 7.9 336 -999
2007-02-16 07:51:31 51°14.094 2°55.446 341.2 7.9 335 -999
2007-02-16 07:51:36 51°14.104 2°55.438 340.4 7.9 335 10.5
2007-02-16 07:51:41 51°14.114 2°55.431 339.7 7.9 334 -999
2007-02-16 07:51:46 51°14.124 2°55.423 339.3 7.9 333 10.5
2007-02-16 07:51:52 51°14.135 2°55.413 338.6 8 333 -999
2007-02-16 07:51:57 51°14.145 2°55.405 337.9 8 332 -999
2007-02-16 07:52:03 51°14.157 2°55.395 337 7.9 330 -999
2007-02-16 07:52:08 51°14.166 2°55.386 335 7.9 329 -999
2007-02-16 07:52:13 51°14.175 2°55.376 333.5 7.9 327 -999
2007-02-16 07:52:18 51°14.184 2°55.366 331.8 7.9 326 -999
2007-02-16 07:52:23 51°14.193 2°55.356 330.4 7.9 324 -999
2007-02-16 07:52:28 51°14.202 2°55.345 329 7.9 323 10.9
2007-02-16 07:52:33 51°14.211 2°55.335 327.6 7.9 322 -999
2007-02-16 07:52:38 51°14.219 2°55.323 326.2 7.9 320 -999
2007-02-16 07:52:43 51°14.228 2°55.312 324.9 7.9 319 -999
2007-02-16 07:52:48 51°14.236 2°55.301 323.7 7.9 318 -999
2007-02-16 07:52:53 51°14.244 2°55.289 322.8 7.9 317 -999
2007-02-16 07:52:58 51°14.252 2°55.276 321.5 7.9 315 -999
2007-02-16 07:53:03 51°14.259 2°55.263 320.1 7.9 314 10.9
2007-02-16 07:53:08 51°14.267 2°55.251 319.3 7.9 314 10.8
2007-02-16 07:53:13 51°14.274 2°55.238 318.8 7.9 313 -999
2007-02-16 07:53:18 51°14.281 2°55.225 317.9 7.9 312 -999
2007-02-16 07:53:23 51°14.289 2°55.212 317.2 7.9 312 -999
2007-02-16 07:53:28 51°14.296 2°55.199 317.1 7.9 312 11.1
2007-02-16 07:53:33 51°14.304 2°55.186 317.1 7.9 312 11
2007-02-16 07:53:37 51°14.309 2°55.175 317.1 7.9 311 11.3
2007-02-16 07:53:43 51°14.318 2°55.159 316.8 7.9 311 11.1
2007-02-16 07:53:47 51°14.324 2°55.149 316.4 7.9 311 11.2
2007-02-16 07:53:52 51°14.331 2°55.135 316.3 8.1 310 10.9
2007-02-16 07:53:57 51°14.338 2°55.121 316 8.4 310 10.5
2007-02-16 07:54:02 51°14.346 2°55.106 315.2 9 308 10.3
2007-02-16 07:54:07 51°14.354 2°55.088 314.2 9.8 308 10
2007-02-16 07:54:12 51°14.363 2°55.07 313 10.5 307 10
2007-02-16 07:54:16 51°14.37 2°55.054 312.4 11.1 306 10.1
2007-02-16 07:54:21 51°14.38 2°55.033 311.9 11.5 306 10.1
2007-02-16 07:54:26 51°14.389 2°55.011 311.2 12 305 9.8
2007-02-16 07:54:31 51°14.399 2°54.989 311.1 12.4 306 9.8
2007-02-16 07:54:36 51°14.409 2°54.966 311.9 12.7 305 9.9
2007-02-16 07:54:41 51°14.418 2°54.942 310.8 12.9 301 10.2
2007-02-16 07:54:46 51°14.427 2°54.916 307.7 13.1 298 10.6
2007-02-16 07:54:50 51°14.433 2°54.895 304.7 13.3 295 10.2
2007-02-16 07:54:55 51°14.44 2°54.867 301.7 13.4 293 10
2007-02-16 07:55:00 51°14.447 2°54.84 298.5 13.4 290 10
2007-02-16 07:55:05 51°14.452 2°54.811 296 13.5 287 10.3
2007-02-16 07:55:10 51°14.457 2°54.782 292.9 13.6 284 9.8
2007-02-16 07:55:14 51°14.46 2°54.758 289.7 13.6 282 9.9
2007-02-16 07:55:19 51°14.463 2°54.729 287.1 13.7 278 10.4
2007-02-16 07:55:24 51°14.465 2°54.698 284.1 13.7 276 9.8
2007-02-16 07:55:29 51°14.466 2°54.668 280.8 13.7 273 9.8
2007-02-16 07:55:35 51°14.467 2°54.632 278.9 13.8 271 10.2
2007-02-16 07:55:40 51°14.466 2°54.601 276.4 13.8 269 10.3
2007-02-16 07:55:44 51°14.466 2°54.577 274.6 13.8 267 10.5
2007-02-16 07:55:49 51°14.463 2°54.547 271.1 13.8 263 10.2
2007-02-16 07:55:54 51°14.46 2°54.517 268 13.8 259 9.8
2007-02-16 07:56:00 51°14.454 2°54.482 263.5 13.8 254 10.4
2007-02-16 07:56:04 51°14.449 2°54.459 259 13.8 250 9.9
2007-02-16 07:56:10 51°14.439 2°54.425 254.3 13.8 246 9.9
2007-02-16 07:56:14 51°14.433 2°54.403 250.6 13.8 244 9.8
2007-02-16 07:56:19 51°14.424 2°54.376 247.5 13.8 241 9.1
2007-02-16 07:56:25 51°14.413 2°54.345 245.3 13.7 241 8.9
2007-02-16 07:56:30 51°14.403 2°54.318 244.6 13.6 241 8.8
2007-02-16 07:56:34 51°14.396 2°54.297 244 13.6 240 8.8
2007-02-16 07:56:39 51°14.387 2°54.271 243.8 13.7 240 8.7
2007-02-16 07:56:45 51°14.375 2°54.24 243.6 13.7 240 8.7
2007-02-16 07:56:50 51°14.366 2°54.213 243.5 13.7 240 8.6
2007-02-16 07:56:54 51°14.358 2°54.192 243.5 13.8 240 8.6
2007-02-16 07:57:00 51°14.347 2°54.161 243.2 13.8 239 8.6
2007-02-16 07:57:04 51°14.339 2°54.14 243 13.8 239 8.6
2007-02-16 07:57:09 51°14.329 2°54.113 242.5 13.8 239 8.6
2007-02-16 07:57:15 51°14.318 2°54.082 242.7 13.9 239 8.6
2007-02-16 07:57:20 51°14.308 2°54.055 242.7 13.9 240 8.6
2007-02-16 07:57:24 51°14.3 2°54.034 243.1 13.9 240 8.5
2007-02-16 07:57:30 51°14.289 2°54.002 243.4 13.9 240 8.6
2007-02-16 07:57:35 51°14.279 2°53.975 243.4 13.9 240 8.5
2007-02-16 07:57:40 51°14.269 2°53.948 243.5 14 240 8.6
2007-02-16 07:57:44 51°14.262 2°53.927 243.6 14 240 8.6
2007-02-16 07:57:49 51°14.252 2°53.9 243.6 14 240 8.6
2007-02-16 07:57:54 51°14.242 2°53.873 243.7 14 240 8.6
2007-02-16 07:58:00 51°14.23 2°53.841 243.4 14 240 8.5
2007-02-16 07:58:04 51°14.223 2°53.82 243.1 14 240 8.6
2007-02-16 07:58:09 51°14.213 2°53.793 243.1 14 240 8.6
2007-02-16 07:58:14 51°14.203 2°53.767 243.4 14 240 8.6
2007-02-16 07:58:20 51°14.191 2°53.734 243.4 14.1 240 8.6
2007-02-16 07:58:25 51°14.181 2°53.707 243.5 14.1 240 8.7
2007-02-16 07:58:30 51°14.172 2°53.68 243.7 14.1 240 8.7
2007-02-16 07:58:34 51°14.164 2°53.659 243.7 14.1 240 8.8
2007-02-16 07:58:40 51°14.153 2°53.626 243.8 14.1 241 8.8
2007-02-16 07:58:45 51°14.143 2°53.599 244.1 14.1 241 8.7
2007-02-16 07:58:49 51°14.136 2°53.577 244.5 14.1 242 8.8
2007-02-16 07:58:54 51°14.126 2°53.55 244.8 14.1 241 8.8
2007-02-16 07:59:00 51°14.115 2°53.517 244.9 14.2 241 8.8
2007-02-16 07:59:05 51°14.105 2°53.489 244.9 14.2 241 8.8
2007-02-16 07:59:09 51°14.098 2°53.467 244.8 14.2 242 8.9
2007-02-16 07:59:14 51°14.088 2°53.44 244.8 14.1 241 8.9
2007-02-16 07:59:20 51°14.077 2°53.407 244.9 14.1 241 8.9
2007-02-16 07:59:24 51°14.069 2°53.385 244.8 14.2 241 9
2007-02-16 07:59:30 51°14.058 2°53.352 244.5 14.2 241 9.1
2007-02-16 07:59:35 51°14.048 2°53.325 244.4 14.2 241 9
2007-02-16 07:59:40 51°14.039 2°53.297 244.5 14.2 241 9
2007-02-16 07:59:44 51°14.031 2°53.275 244.7 14.2 241 9.1
2007-02-16 07:59:50 51°14.02 2°53.242 244.6 14.2 241 9.2
2007-02-16 07:59:55 51°14.01 2°53.214 244.5 14.2 241 9.2
2007-02-16 08:00:00 51°14 2°53.187 244.2 14.3 241 9.2
2007-02-16 08:00:04 51°13.992 2°53.165 244.2 14.3 240 9.2
2007-02-16 08:00:09 51°13.983 2°53.137 244.1 14.3 241 9.2
2007-02-16 08:00:15 51°13.971 2°53.104 244.4 14.3 241 9.3
2007-02-16 08:00:20 51°13.962 2°53.076 244.5 14.3 241 9.3
2007-02-16 08:00:24 51°13.954 2°53.055 244.5 14.3 241 9.3
2007-02-16 08:00:29 51°13.945 2°53.027 244.6 14.3 241 9.4
2007-02-16 08:00:34 51°13.935 2°52.999 244.7 14.3 241 9.4
2007-02-16 08:00:40 51°13.924 2°52.966 244.7 14.3 241 9.4
2007-02-16 08:00:44 51°13.916 2°52.944 244.6 14.3 241 9.4
2007-02-16 08:00:49 51°13.907 2°52.916 244.7 14.3 241 9.5
2007-02-16 08:00:55 51°13.896 2°52.882 244.8 14.3 242 9.5
2007-02-16 08:01:00 51°13.886 2°52.855 245 14.3 241 9.5
2007-02-16 08:01:04 51°13.879 2°52.833 244.7 14.3 241 9.5
2007-02-16 08:01:09 51°13.869 2°52.805 244.5 14.3 241 9.5
2007-02-16 08:01:14 51°13.86 2°52.777 244.5 14.3 241 9.5
2007-02-16 08:01:20 51°13.848 2°52.744 244.5 14.3 241 9.5
2007-02-16 08:01:25 51°13.838 2°52.716 244.5 14.3 241 9.6
2007-02-16 08:01:30 51°13.829 2°52.689 244.5 14.3 241 9.6
2007-02-16 08:01:34 51°13.821 2°52.667 244.6 14.3 241 9.6
2007-02-16 08:01:40 51°13.81 2°52.633 244.6 14.3 242 9.6
2007-02-16 08:01:44 51°13.802 2°52.611 244.7 14.3 241 9.6
2007-02-16 08:01:49 51°13.793 2°52.583 245.1 14.3 242 9.7
2007-02-16 08:01:54 51°13.783 2°52.555 245.2 14.3 241 9.7
2007-02-16 08:02:00 51°13.771 2°52.522 244.7 14.3 241 9.7
2007-02-16 08:02:04 51°13.764 2°52.5 244.6 14.3 241 9.7
2007-02-16 08:02:09 51°13.754 2°52.473 244.6 14.3 241 9.8
2007-02-16 08:02:15 51°13.742 2°52.439 244.6 14.3 241 9.8
2007-02-16 08:02:20 51°13.732 2°52.412 244.6 14.3 241 9.8
2007-02-16 08:02:24 51°13.725 2°52.39 244.6 14.3 240 9.8
2007-02-16 08:02:29 51°13.715 2°52.362 244.5 14.3 241 9.8
2007-02-16 08:02:35 51°13.704 2°52.329 244.9 14.3 241 9.8
2007-02-16 08:02:40 51°13.694 2°52.301 245.1 14.2 242 9.9
2007-02-16 08:02:45 51°13.685 2°52.274 245.5 14.2 242 9.9
2007-02-16 08:02:49 51°13.677 2°52.251 245.6 14.2 242 9.9
2007-02-16 08:02:54 51°13.668 2°52.224 245.5 14.3 242 9.9
2007-02-16 08:03:00 51°13.657 2°52.191 245.3 14.2 241 9.9
2007-02-16 08:03:05 51°13.647 2°52.163 245.3 14.2 241 9.9
2007-02-16 08:03:10 51°13.638 2°52.136 245 14.2 241 9.9
2007-02-16 08:03:15 51°13.628 2°52.108 244.7 14.2 241 9.9
2007-02-16 08:03:20 51°13.619 2°52.08 245.1 14.3 242 9.9
2007-02-16 08:03:25 51°13.609 2°52.053 245.3 14.2 242 10
2007-02-16 08:03:30 51°13.6 2°52.025 245.5 14.2 242 10
2007-02-16 08:03:34 51°13.593 2°52.002 246 14.2 242 10
2007-02-16 08:03:40 51°13.581 2°51.969 245.8 14.2 242 10
2007-02-16 08:03:45 51°13.572 2°51.941 245.8 14.2 242 10
2007-02-16 08:03:50 51°13.563 2°51.914 245.8 14.2 242 10
2007-02-16 08:03:55 51°13.554 2°51.886 245.7 14.2 242 10
2007-02-16 08:04:00 51°13.545 2°51.858 245.7 14.2 242 10
2007-02-16 08:04:05 51°13.535 2°51.831 245.6 14.2 242 10
2007-02-16 08:04:10 51°13.526 2°51.803 245.6 14.2 242 10
2007-02-16 08:04:15 51°13.517 2°51.775 245.6 14.2 242 10.1
2007-02-16 08:04:20 51°13.507 2°51.747 245.9 14.2 242 10.1
2007-02-16 08:04:25 51°13.498 2°51.72 245.8 14.2 242 10.1
2007-02-16 08:04:30 51°13.489 2°51.692 245.5 14.2 242 10.1
2007-02-16 08:04:35 51°13.48 2°51.664 245.4 14.2 242 10.2
2007-02-16 08:04:40 51°13.47 2°51.637 245.3 14.2 241 10.2
2007-02-16 08:04:45 51°13.461 2°51.609 245.2 14.2 242 10.2
2007-02-16 08:04:50 51°13.452 2°51.581 245.3 14.2 242 10.3
2007-02-16 08:04:54 51°13.444 2°51.559 245.4 14.2 242 10.3
2007-02-16 08:05:00 51°13.433 2°51.526 245.4 14.2 242 10.2
2007-02-16 08:05:05 51°13.424 2°51.498 245.4 14.2 242 10.3
2007-02-16 08:05:10 51°13.414 2°51.47 245.1 14.2 242 10.3
2007-02-16 08:05:14 51°13.407 2°51.448 245 14.3 241 10.3
2007-02-16 08:05:20 51°13.395 2°51.415 244.9 14.2 242 10.3
2007-02-16 08:05:25 51°13.386 2°51.388 245 14.2 242 10.3
2007-02-16 08:05:30 51°13.377 2°51.36 245.1 14.2 242 10.4
2007-02-16 08:05:34 51°13.369 2°51.338 245.1 14.2 242 10.3
2007-02-16 08:05:40 51°13.358 2°51.305 245.3 14.2 242 10.3
2007-02-16 08:05:45 51°13.349 2°51.277 245.5 14.2 242 10.3
2007-02-16 08:05:50 51°13.34 2°51.249 245.5 14.2 242 10.4
2007-02-16 08:05:55 51°13.33 2°51.221 245.6 14.2 242 10.4
2007-02-16 08:06:00 51°13.321 2°51.193 245.4 14.3 242 10.5
2007-02-16 08:06:05 51°13.311 2°51.166 245.3 14.2 241 10.6
2007-02-16 08:06:10 51°13.302 2°51.138 245.1 14.2 242 10.5
2007-02-16 08:06:15 51°13.293 2°51.111 245.1 14.2 241 10.5
2007-02-16 08:06:20 51°13.283 2°51.083 245 14.2 242 10.5
2007-02-16 08:06:25 51°13.274 2°51.055 244.7 14.3 241 10.5
2007-02-16 08:06:30 51°13.264 2°51.028 245.1 14.2 242 10.5
2007-02-16 08:06:35 51°13.255 2°51 245.3 14.2 242 10.5
2007-02-16 08:06:40 51°13.246 2°50.973 245.4 14.2 242 10.5
2007-02-16 08:06:45 51°13.237 2°50.945 245.5 14.2 242 10.5
2007-02-16 08:06:50 51°13.228 2°50.917 245.5 14.2 242 10.5
2007-02-16 08:06:55 51°13.218 2°50.889 245.7 14.2 242 10.5
2007-02-16 08:07:00 51°13.209 2°50.862 245.7 14.2 242 10.6
2007-02-16 08:07:05 51°13.2 2°50.834 245.3 14.2 242 10.6
2007-02-16 08:07:10 51°13.19 2°50.806 245.3 14.2 242 10.6
2007-02-16 08:07:15 51°13.181 2°50.778 245.5 14.2 242 10.6
2007-02-16 08:07:20 51°13.172 2°50.751 245.6 14.2 242 10.6
2007-02-16 08:07:25 51°13.163 2°50.723 245.6 14.2 242 10.7
2007-02-16 08:07:30 51°13.154 2°50.695 245.6 14.2 242 10.7
2007-02-16 08:07:34 51°13.146 2°50.673 245.7 14.2 242 10.7
2007-02-16 08:07:40 51°13.135 2°50.639 245.7 14.2 242 10.7
2007-02-16 08:07:45 51°13.126 2°50.612 245.3 14.2 242 10.7
2007-02-16 08:07:50 51°13.116 2°50.584 245 14.2 242 10.7
2007-02-16 08:07:54 51°13.109 2°50.562 245 14.2 242 10.8
2007-02-16 08:08:00 51°13.098 2°50.529 245 14.2 242 10.8
2007-02-16 08:08:05 51°13.088 2°50.501 245 14.2 242 10.8
2007-02-16 08:08:10 51°13.079 2°50.474 244.9 14.2 242 10.8
2007-02-16 08:08:15 51°13.07 2°50.446 244.9 14.2 242 10.8
2007-02-16 08:08:20 51°13.061 2°50.418 245.1 14.2 242 10.9
2007-02-16 08:08:25 51°13.051 2°50.391 245.3 14.2 242 10.9
2007-02-16 08:08:30 51°13.042 2°50.363 245.2 14.2 242 10.9
2007-02-16 08:08:35 51°13.032 2°50.336 245.1 14.2 241 10.9
2007-02-16 08:08:40 51°13.023 2°50.308 245 14.2 242 10.9
2007-02-16 08:08:45 51°13.014 2°50.28 245 14.2 242 10.9
2007-02-16 08:08:50 51°13.004 2°50.253 244.8 14.2 242 11
2007-02-16 08:08:55 51°12.995 2°50.225 244.8 14.2 242 11
2007-02-16 08:09:00 51°12.986 2°50.197 244.9 14.2 242 11
2007-02-16 08:09:05 51°12.977 2°50.169 245.3 14.2 242 11
2007-02-16 08:09:10 51°12.967 2°50.142 245.5 14.2 242 11
2007-02-16 08:09:15 51°12.958 2°50.114 245.4 14.2 242 11
2007-02-16 08:09:20 51°12.949 2°50.086 245.5 14.3 242 11
2007-02-16 08:09:25 51°12.94 2°50.058 245.5 14.3 243 11
2007-02-16 08:09:30 51°12.931 2°50.03 245.5 14.2 243 11
2007-02-16 08:09:35 51°12.922 2°50.002 245.6 14.2 243 11
2007-02-16 08:09:40 51°12.913 2°49.974 245.6 14.2 242 11.1
2007-02-16 08:09:45 51°12.903 2°49.946 245.6 14.2 242 11.1
2007-02-16 08:09:50 51°12.894 2°49.919 245.4 14.2 242 11.1
2007-02-16 08:09:55 51°12.885 2°49.891 245.3 14.2 242 11.1
2007-02-16 08:10:00 51°12.876 2°49.863 245.3 14.2 242 11.1
2007-02-16 08:10:05 51°12.867 2°49.835 245.1 14.2 242 11.1
2007-02-16 08:10:10 51°12.857 2°49.807 244.9 14.2 242 11.1
2007-02-16 08:10:15 51°12.848 2°49.78 245 14.2 242 11.2
2007-02-16 08:10:20 51°12.839 2°49.752 245 14.2 242 11.2
2007-02-16 08:10:25 51°12.83 2°49.724 245 14.2 242 11.2
2007-02-16 08:10:30 51°12.82 2°49.696 245 14.2 242 11.2
2007-02-16 08:10:35 51°12.811 2°49.669 245 14.2 242 11.2
2007-02-16 08:10:40 51°12.802 2°49.641 245 14.2 242 11.2
2007-02-16 08:10:45 51°12.792 2°49.613 245 14.2 242 11.2
2007-02-16 08:10:50 51°12.783 2°49.585 245.1 14.2 242 11.2
2007-02-16 08:10:55 51°12.774 2°49.557 245.3 14.2 242 11.3
2007-02-16 08:11:00 51°12.765 2°49.53 245.3 14.2 243 11.3
2007-02-16 08:11:05 51°12.756 2°49.502 245.5 14.2 242 11.4
2007-02-16 08:11:10 51°12.746 2°49.474 245.5 14.2 242 11.3
2007-02-16 08:11:15 51°12.737 2°49.446 245.3 14.2 241 11.3
2007-02-16 08:11:20 51°12.728 2°49.419 245.2 14.2 242 11.4
2007-02-16 08:11:25 51°12.719 2°49.391 245.2 14.2 242 11.4
2007-02-16 08:11:30 51°12.709 2°49.363 245.3 14.2 242 11.4
2007-02-16 08:11:35 51°12.7 2°49.335 245.3 14.2 242 11.4
2007-02-16 08:11:40 51°12.691 2°49.308 245.3 14.2 242 11.4
2007-02-16 08:11:45 51°12.682 2°49.28 245.4 14.2 242 11.4
2007-02-16 08:11:50 51°12.672 2°49.252 245.5 14.2 243 11.5
2007-02-16 08:11:55 51°12.663 2°49.224 245.6 14.2 242 11.5
2007-02-16 08:12:00 51°12.654 2°49.197 245.5 14.2 242 11.5
2007-02-16 08:12:05 51°12.645 2°49.169 245.3 14.2 242 11.5
2007-02-16 08:12:10 51°12.636 2°49.141 245.3 14.2 242 11.6
2007-02-16 08:12:15 51°12.626 2°49.114 245.3 14.2 242 11.5
2007-02-16 08:12:20 51°12.617 2°49.086 245.3 14.2 242 11.6
2007-02-16 08:12:25 51°12.608 2°49.058 245.4 14.2 242 11.5
2007-02-16 08:12:30 51°12.599 2°49.031 245.5 14.2 242 11.6
2007-02-16 08:12:35 51°12.59 2°49.003 245.5 14.2 242 11.5
2007-02-16 08:12:40 51°12.58 2°48.975 245.5 14.2 242 11.6
2007-02-16 08:12:45 51°12.571 2°48.948 245.6 14.2 242 11.6
2007-02-16 08:12:50 51°12.562 2°48.92 245.6 14.2 243 11.6
2007-02-16 08:12:55 51°12.553 2°48.892 245.8 14.2 242 11.6
2007-02-16 08:13:00 51°12.544 2°48.864 245.7 14.2 242 11.6
2007-02-16 08:13:05 51°12.535 2°48.837 245.4 14.2 242 11.6
2007-02-16 08:13:10 51°12.525 2°48.809 245.3 14.2 242 11.7
2007-02-16 08:13:15 51°12.516 2°48.782 245.2 14.2 242 11.7
2007-02-16 08:13:20 51°12.507 2°48.754 245.1 14.2 242 11.7
2007-02-16 08:13:25 51°12.498 2°48.726 245 14.2 242 11.7
2007-02-16 08:13:30 51°12.489 2°48.699 245.3 14.2 242 11.7
2007-02-16 08:13:35 51°12.48 2°48.671 245.2 14.2 242 11.7
2007-02-16 08:13:40 51°12.47 2°48.644 245.3 14.2 242 11.8
2007-02-16 08:13:45 51°12.461 2°48.616 245.3 14.2 242 11.8
2007-02-16 08:13:50 51°12.452 2°48.588 245.5 14.1 242 11.8
2007-02-16 08:13:55 51°12.443 2°48.561 245.4 14.2 242 11.8
2007-02-16 08:14:00 51°12.434 2°48.533 245.3 14.1 242 11.8
2007-02-16 08:14:05 51°12.424 2°48.506 245.1 14.2 242 11.8
2007-02-16 08:14:10 51°12.415 2°48.478 245 14.1 241 11.8
2007-02-16 08:14:15 51°12.405 2°48.451 244.8 14.1 241 11.8
2007-02-16 08:14:20 51°12.396 2°48.424 244.7 14.1 241 11.8
2007-02-16 08:14:25 51°12.387 2°48.396 245.1 14.1 242 11.9
2007-02-16 08:14:30 51°12.378 2°48.369 245.3 14.1 242 11.9
2007-02-16 08:14:35 51°12.369 2°48.341 245.4 14.1 242 11.9
2007-02-16 08:14:40 51°12.359 2°48.314 245.5 14.1 242 11.9
2007-02-16 08:14:45 51°12.35 2°48.286 245.3 14.1 241 12
2007-02-16 08:14:50 51°12.341 2°48.259 245 14.1 241 12
2007-02-16 08:14:55 51°12.331 2°48.232 245.1 14 242 12
2007-02-16 08:15:00 51°12.322 2°48.204 245.2 14.1 242 12
2007-02-16 08:15:05 51°12.313 2°48.177 245.6 14 242 12
2007-02-16 08:15:10 51°12.304 2°48.15 245.8 14 242 12
2007-02-16 08:15:14 51°12.297 2°48.128 246 14 242 12
2007-02-16 08:15:20 51°12.286 2°48.095 245.7 14 242 12.1
2007-02-16 08:15:25 51°12.277 2°48.068 245.5 14 242 12
2007-02-16 08:15:30 51°12.268 2°48.041 245.3 14 242 12.1
2007-02-16 08:15:35 51°12.259 2°48.013 245.3 13.9 243 12.1
2007-02-16 08:15:40 51°12.249 2°47.986 245.4 14 242 12.1
2007-02-16 08:15:45 51°12.24 2°47.959 245.4 14 242 12.1
2007-02-16 08:15:50 51°12.231 2°47.932 245.3 13.9 242 12.1
2007-02-16 08:15:55 51°12.222 2°47.904 245.1 14 241 12.1
2007-02-16 08:16:00 51°12.213 2°47.877 244.9 14 243 12.2
2007-02-16 08:16:05 51°12.204 2°47.85 245.5 14 243 12.1
2007-02-16 08:16:10 51°12.196 2°47.822 246.3 14 244 12.1
2007-02-16 08:16:14 51°12.189 2°47.799 247.5 13.9 245 12.1
2007-02-16 08:16:20 51°12.18 2°47.766 247.9 14 245 12.1
2007-02-16 08:16:25 51°12.172 2°47.738 248.6 14 246 12.2
2007-02-16 08:16:30 51°12.163 2°47.71 248.8 14 245 12.2
2007-02-16 08:16:35 51°12.155 2°47.682 248.5 14 245 12.2
2007-02-16 08:16:40 51°12.147 2°47.654 248.6 14 245 12.3
2007-02-16 08:16:45 51°12.139 2°47.626 248.5 14 245 12.2
2007-02-16 08:16:50 51°12.131 2°47.598 248.4 14 245 12.3
2007-02-16 08:16:55 51°12.123 2°47.57 248.8 14 245 12.3
2007-02-16 08:17:00 51°12.115 2°47.541 248.9 14 246 12.3
2007-02-16 08:17:05 51°12.106 2°47.513 248.9 14 245 12.3
2007-02-16 08:17:10 51°12.099 2°47.485 248.9 14 246 12.3
2007-02-16 08:17:15 51°12.09 2°47.457 249 13.9 245 12.3
2007-02-16 08:17:20 51°12.082 2°47.429 248.5 14 245 12.4
2007-02-16 08:17:25 51°12.074 2°47.402 248.6 13.9 244 12.3
2007-02-16 08:17:30 51°12.066 2°47.374 248.4 13.9 245 12.4
2007-02-16 08:17:35 51°12.057 2°47.346 248.4 13.9 244 12.4
2007-02-16 08:17:40 51°12.049 2°47.318 248.2 13.9 245 12.4
2007-02-16 08:17:45 51°12.041 2°47.29 248.5 13.9 245 12.3
2007-02-16 08:17:50 51°12.033 2°47.262 248.8 13.9 246 12.4
2007-02-16 08:17:55 51°12.026 2°47.234 248.9 14 246 12.4
2007-02-16 08:18:00 51°12.018 2°47.206 249 13.9 246 12.4
2007-02-16 08:18:05 51°12.009 2°47.178 248.9 13.9 245 12.4
2007-02-16 08:18:10 51°12.001 2°47.15 248.7 14 246 12.4
2007-02-16 08:18:15 51°11.993 2°47.122 248.5 13.9 245 12.4
2007-02-16 08:18:20 51°11.985 2°47.094 248.3 13.9 245 12.4
2007-02-16 08:18:25 51°11.977 2°47.067 248.3 13.9 245 12.5
2007-02-16 08:18:30 51°11.969 2°47.039 248.1 13.9 245 12.4
2007-02-16 08:18:35 51°11.96 2°47.011 248.1 13.9 245 12.3
2007-02-16 08:18:40 51°11.952 2°46.983 248.2 13.9 245 12.5
2007-02-16 08:18:45 51°11.944 2°46.955 248.4 13.8 246 12.5
2007-02-16 08:18:50 51°11.937 2°46.927 248.6 13.8 246 12.5
2007-02-16 08:18:54 51°11.93 2°46.905 248.6 13.9 246 12.5
2007-02-16 08:19:00 51°11.921 2°46.872 248.6 13.9 245 12.5
2007-02-16 08:19:05 51°11.912 2°46.844 248.5 13.9 245 12.5
2007-02-16 08:19:10 51°11.904 2°46.816 248.3 13.8 245 12.5
2007-02-16 08:19:14 51°11.898 2°46.794 248.2 13.9 245 12.5
2007-02-16 08:19:20 51°11.888 2°46.76 248 13.9 245 12.5
2007-02-16 08:19:25 51°11.88 2°46.733 248.1 13.8 244 12.4
2007-02-16 08:19:30 51°11.872 2°46.705 248 13.8 245 12.5
2007-02-16 08:19:35 51°11.864 2°46.677 248 13.8 245 12.5
2007-02-16 08:19:40 51°11.856 2°46.65 248.2 13.8 246 12.5
2007-02-16 08:19:45 51°11.848 2°46.622 248.4 13.9 245 12.5
2007-02-16 08:19:50 51°11.84 2°46.594 248.6 13.9 246 12.6
2007-02-16 08:19:55 51°11.832 2°46.566 248.5 13.9 245 12.6
2007-02-16 08:20:00 51°11.824 2°46.538 248.2 13.9 245 12.6
2007-02-16 08:20:05 51°11.815 2°46.511 248.2 13.9 245 12.6
2007-02-16 08:20:10 51°11.807 2°46.483 248.3 13.9 245 12.6
2007-02-16 08:20:15 51°11.799 2°46.455 248.2 13.9 245 12.6
2007-02-16 08:20:20 51°11.791 2°46.427 248.2 13.9 245 12.6
2007-02-16 08:20:25 51°11.783 2°46.399 248.4 13.9 246 12.6
2007-02-16 08:20:30 51°11.775 2°46.371 248.5 13.9 245 12.6
2007-02-16 08:20:35 51°11.767 2°46.344 248.5 13.8 245 12.6
2007-02-16 08:20:40 51°11.759 2°46.316 248.3 13.9 245 12.6
2007-02-16 08:20:45 51°11.751 2°46.288 248.2 13.9 245 12.6
2007-02-16 08:20:50 51°11.743 2°46.26 248.2 13.9 245 12.6
2007-02-16 08:20:55 51°11.735 2°46.232 248.2 13.9 246 12.6
2007-02-16 08:21:00 51°11.727 2°46.205 248.2 13.9 246 12.6
2007-02-16 08:21:05 51°11.719 2°46.177 248.4 13.9 246 12.6
2007-02-16 08:21:10 51°11.711 2°46.149 248.5 13.8 246 12.6
2007-02-16 08:21:15 51°11.703 2°46.121 248.6 13.8 246 12.6
2007-02-16 08:21:20 51°11.695 2°46.093 248.5 13.8 246 12.5
2007-02-16 08:21:25 51°11.687 2°46.065 248.5 13.8 246 12.5
2007-02-16 08:21:30 51°11.679 2°46.038 248.6 13.8 246 12.5
2007-02-16 08:21:35 51°11.671 2°46.01 248.6 13.8 246 12.5
2007-02-16 08:21:40 51°11.664 2°45.982 248.6 13.8 246 12.5
2007-02-16 08:21:45 51°11.656 2°45.954 248.7 13.8 246 12.5
2007-02-16 08:21:50 51°11.648 2°45.926 248.7 13.8 246 12.5
2007-02-16 08:21:55 51°11.64 2°45.899 248.6 13.8 246 12.5
2007-02-16 08:22:00 51°11.632 2°45.871 248.5 13.8 245 12.5
2007-02-16 08:22:05 51°11.624 2°45.843 248.3 13.8 245 12.5
2007-02-16 08:22:10 51°11.616 2°45.816 248.2 13.8 245 12.5
2007-02-16 08:22:15 51°11.607 2°45.788 248 13.8 245 12.5
2007-02-16 08:22:20 51°11.599 2°45.761 247.7 13.9 245 12.5
2007-02-16 08:22:25 51°11.591 2°45.733 247.7 13.9 245 12.5
2007-02-16 08:22:30 51°11.583 2°45.705 248.1 13.8 245 12.5
2007-02-16 08:22:35 51°11.575 2°45.677 248.3 13.8 245 12.5
2007-02-16 08:22:40 51°11.567 2°45.649 248.3 13.8 245 12.5
2007-02-16 08:22:45 51°11.559 2°45.621 248.2 13.8 245 12.4
2007-02-16 08:22:50 51°11.552 2°45.594 248.1 13.8 245 12.4
2007-02-16 08:22:55 51°11.544 2°45.566 248.1 13.8 245 12.4
2007-02-16 08:23:00 51°11.535 2°45.539 248.1 13.8 246 12.4
2007-02-16 08:23:05 51°11.527 2°45.511 248.1 13.8 245 12.3
2007-02-16 08:23:10 51°11.52 2°45.483 248.2 13.8 246 12.4
2007-02-16 08:23:14 51°11.513 2°45.461 248.4 13.8 246 12.4
2007-02-16 08:23:20 51°11.504 2°45.428 248.7 13.8 246 12.4
2007-02-16 08:23:25 51°11.496 2°45.4 248.7 13.8 245 12.4
2007-02-16 08:23:30 51°11.488 2°45.372 248.4 13.8 246 12.4
2007-02-16 08:23:34 51°11.482 2°45.35 248.4 13.8 245 12.3
2007-02-16 08:23:40 51°11.472 2°45.317 248.3 13.8 246 12.4
2007-02-16 08:23:45 51°11.464 2°45.289 248.5 13.8 246 12.3
2007-02-16 08:23:50 51°11.457 2°45.261 248.4 13.8 246 12.3
2007-02-16 08:23:55 51°11.448 2°45.234 248.3 13.8 245 12.3
2007-02-16 08:24:00 51°11.441 2°45.206 248 13.8 245 12.3
2007-02-16 08:24:05 51°11.433 2°45.178 247.9 13.8 245 12.3
2007-02-16 08:24:10 51°11.425 2°45.15 248 13.8 245 12.3
2007-02-16 08:24:15 51°11.417 2°45.122 248.5 13.8 246 12.4
2007-02-16 08:24:20 51°11.409 2°45.095 248.5 13.8 246 12.3
2007-02-16 08:24:25 51°11.401 2°45.067 248.4 13.8 246 12.3
2007-02-16 08:24:30 51°11.393 2°45.039 248.2 13.8 246 12.4
2007-02-16 08:24:35 51°11.385 2°45.011 248.4 13.8 246 12.3
2007-02-16 08:24:40 51°11.378 2°44.984 248.5 13.8 246 12.3
2007-02-16 08:24:45 51°11.37 2°44.956 248.2 13.8 245 12.3
2007-02-16 08:24:50 51°11.362 2°44.928 248.2 13.8 246 12.3
2007-02-16 08:24:55 51°11.354 2°44.901 248.2 13.8 245 12.3
2007-02-16 08:25:00 51°11.346 2°44.873 248.1 13.8 246 12.3
2007-02-16 08:25:05 51°11.338 2°44.845 248.2 13.8 245 12.3
2007-02-16 08:25:10 51°11.33 2°44.817 248.2 13.8 246 12.2
2007-02-16 08:25:15 51°11.322 2°44.79 248.3 13.8 246 12.2
2007-02-16 08:25:20 51°11.315 2°44.762 248.3 13.8 245 12.2
2007-02-16 08:25:25 51°11.307 2°44.734 248.2 13.8 245 12.2
2007-02-16 08:25:30 51°11.299 2°44.707 248.2 13.8 245 12.2
2007-02-16 08:25:35 51°11.291 2°44.679 247.8 13.7 245 12.2
2007-02-16 08:25:40 51°11.283 2°44.652 247.8 13.7 245 12.2
2007-02-16 08:25:45 51°11.275 2°44.624 247.8 13.8 246 12.1
2007-02-16 08:25:50 51°11.267 2°44.596 248.3 13.7 246 12.1
2007-02-16 08:25:54 51°11.261 2°44.574 248.5 13.7 246 12.1
2007-02-16 08:26:00 51°11.252 2°44.541 248.6 13.7 246 12.1
2007-02-16 08:26:05 51°11.244 2°44.513 248.6 13.8 246 12.1
2007-02-16 08:26:10 51°11.236 2°44.486 248.6 13.7 246 12
2007-02-16 08:26:14 51°11.23 2°44.463 248.6 13.7 246 12
2007-02-16 08:26:20 51°11.221 2°44.43 248.7 13.7 246 12
2007-02-16 08:26:25 51°11.213 2°44.403 248.7 13.7 246 12
2007-02-16 08:26:30 51°11.205 2°44.375 248.4 13.7 246 12
2007-02-16 08:26:35 51°11.197 2°44.347 248.4 13.7 245 12
2007-02-16 08:26:40 51°11.19 2°44.32 248.3 13.7 246 12
2007-02-16 08:26:45 51°11.182 2°44.292 248.3 13.7 245 12
2007-02-16 08:26:50 51°11.174 2°44.265 248.1 13.7 246 12
2007-02-16 08:26:55 51°11.166 2°44.237 248.2 13.7 245 12
2007-02-16 08:27:00 51°11.158 2°44.21 248.3 13.7 246 12
2007-02-16 08:27:05 51°11.151 2°44.182 248.4 13.7 246 12
2007-02-16 08:27:10 51°11.143 2°44.154 248.5 13.7 246 12
2007-02-16 08:27:15 51°11.135 2°44.127 248.5 13.7 245 12
2007-02-16 08:27:20 51°11.127 2°44.099 248.2 13.7 246 11.9
2007-02-16 08:27:25 51°11.119 2°44.072 248.2 13.7 246 11.9
2007-02-16 08:27:30 51°11.112 2°44.044 248.2 13.7 246 11.9
2007-02-16 08:27:35 51°11.104 2°44.017 248.5 13.7 246 11.9
2007-02-16 08:27:40 51°11.096 2°43.989 248.3 13.7 246 11.9
2007-02-16 08:27:45 51°11.088 2°43.962 248.3 13.7 246 11.9
2007-02-16 08:27:50 51°11.08 2°43.934 248.3 13.7 246 11.9
2007-02-16 08:27:55 51°11.073 2°43.906 248.3 13.7 246 11.9
2007-02-16 08:28:00 51°11.065 2°43.879 248.4 13.7 246 11.9
2007-02-16 08:28:05 51°11.057 2°43.851 248.5 13.7 245 11.9
2007-02-16 08:28:10 51°11.049 2°43.824 248.3 13.7 246 11.9
2007-02-16 08:28:15 51°11.041 2°43.796 248.3 13.7 246 11.9
2007-02-16 08:28:20 51°11.033 2°43.769 248.2 13.7 245 11.8
2007-02-16 08:28:25 51°11.025 2°43.741 248.2 13.7 245 11.8
2007-02-16 08:28:30 51°11.018 2°43.714 248.2 13.7 246 11.8
2007-02-16 08:28:35 51°11.01 2°43.686 248.4 13.7 246 11.8
2007-02-16 08:28:40 51°11.002 2°43.659 248.6 13.7 246 11.8
2007-02-16 08:28:45 51°10.994 2°43.631 248.5 13.6 245 11.8
2007-02-16 08:28:50 51°10.986 2°43.604 248 13.6 246 11.8
2007-02-16 08:28:55 51°10.979 2°43.577 248 13.6 245 11.7
2007-02-16 08:29:00 51°10.971 2°43.549 248.1 13.6 246 11.7
2007-02-16 08:29:05 51°10.962 2°43.523 248.2 13.6 245 11.7
2007-02-16 08:29:10 51°10.955 2°43.496 248.2 13.6 246 11.7
2007-02-16 08:29:15 51°10.946 2°43.468 248.2 13.6 245 11.7
2007-02-16 08:29:20 51°10.939 2°43.441 247.9 13.6 245 11.7
2007-02-16 08:29:25 51°10.931 2°43.413 247.9 13.6 245 11.7
2007-02-16 08:29:30 51°10.923 2°43.386 248.2 13.6 246 11.8
2007-02-16 08:29:35 51°10.915 2°43.359 248.2 13.6 245 11.7
2007-02-16 08:29:40 51°10.907 2°43.331 248.2 13.6 246 11.7
2007-02-16 08:29:45 51°10.899 2°43.304 248.2 13.6 245 11.7
2007-02-16 08:29:50 51°10.892 2°43.276 248.2 13.6 246 11.7
2007-02-16 08:29:55 51°10.884 2°43.249 248.4 13.6 246 11.7
2007-02-16 08:30:00 51°10.876 2°43.221 248.5 13.6 246 11.6
2007-02-16 08:30:05 51°10.869 2°43.194 248.3 13.6 246 11.6
2007-02-16 08:30:10 51°10.861 2°43.166 248.6 13.6 246 11.6
2007-02-16 08:30:15 51°10.853 2°43.139 248.5 13.6 245 11.6
2007-02-16 08:30:20 51°10.845 2°43.112 248.1 13.6 245 11.6
2007-02-16 08:30:25 51°10.837 2°43.085 248.1 13.6 245 11.6
2007-02-16 08:30:30 51°10.83 2°43.057 248.1 13.6 246 11.6
2007-02-16 08:30:34 51°10.823 2°43.035 248.1 13.5 245 11.6
2007-02-16 08:30:40 51°10.814 2°43.003 248.1 13.6 246 11.6
2007-02-16 08:30:45 51°10.806 2°42.975 248.1 13.6 245 11.6
2007-02-16 08:30:50 51°10.798 2°42.948 248.1 13.6 245 11.6
2007-02-16 08:30:55 51°10.79 2°42.921 248.1 13.6 245 11.5
2007-02-16 08:31:00 51°10.783 2°42.893 248.1 13.5 246 11.5
2007-02-16 08:31:05 51°10.775 2°42.866 248.2 13.5 245 11.5
2007-02-16 08:31:10 51°10.767 2°42.839 248.3 13.6 246 11.5
2007-02-16 08:31:15 51°10.759 2°42.812 248.3 13.6 245 11.5
2007-02-16 08:31:20 51°10.751 2°42.785 248.2 13.5 246 11.5
2007-02-16 08:31:25 51°10.743 2°42.757 248.3 13.6 245 11.5
2007-02-16 08:31:30 51°10.736 2°42.73 248.4 13.6 246 11.5
2007-02-16 08:31:35 51°10.728 2°42.703 248.5 13.6 246 11.5
2007-02-16 08:31:40 51°10.72 2°42.675 248.5 13.6 246 11.5
2007-02-16 08:31:45 51°10.713 2°42.648 248.5 13.6 246 11.5
2007-02-16 08:31:50 51°10.705 2°42.621 248.5 13.6 246 11.5
2007-02-16 08:31:55 51°10.697 2°42.593 248.6 13.6 246 11.5
2007-02-16 08:32:00 51°10.689 2°42.566 248.6 13.6 246 11.5
2007-02-16 08:32:05 51°10.681 2°42.539 248.4 13.6 246 11.4
2007-02-16 08:32:10 51°10.673 2°42.512 248.4 13.6 245 11.4
2007-02-16 08:32:15 51°10.665 2°42.485 248.2 13.6 246 11.4
2007-02-16 08:32:20 51°10.657 2°42.458 248 13.5 245 11.5
2007-02-16 08:32:25 51°10.649 2°42.43 248 13.6 245 11.4
2007-02-16 08:32:30 51°10.641 2°42.403 247.8 13.6 245 11.4
2007-02-16 08:32:35 51°10.633 2°42.376 247.9 13.5 245 11.4
2007-02-16 08:32:40 51°10.625 2°42.349 247.9 13.6 245 11.3
2007-02-16 08:32:45 51°10.617 2°42.321 247.9 13.6 245 11.3
2007-02-16 08:32:50 51°10.61 2°42.294 248.1 13.5 245 11.4
2007-02-16 08:32:55 51°10.602 2°42.267 248.2 13.5 246 11.4
2007-02-16 08:33:00 51°10.594 2°42.24 248.4 13.5 246 11.4
2007-02-16 08:33:05 51°10.586 2°42.213 248.4 13.5 246 11.4
2007-02-16 08:33:10 51°10.578 2°42.186 248.2 13.5 245 11.3
2007-02-16 08:33:15 51°10.571 2°42.158 248.2 13.5 246 11.3
2007-02-16 08:33:20 51°10.563 2°42.131 248.4 13.5 246 11.3
2007-02-16 08:33:25 51°10.555 2°42.104 248.5 13.5 245 11.3
2007-02-16 08:33:30 51°10.548 2°42.077 248.4 13.5 245 11.3
2007-02-16 08:33:35 51°10.54 2°42.05 248.3 13.5 246 11.3
2007-02-16 08:33:40 51°10.532 2°42.023 248.4 13.5 245 11.3
2007-02-16 08:33:45 51°10.524 2°41.996 248.1 13.5 246 11.3
2007-02-16 08:33:50 51°10.516 2°41.969 248.2 13.4 245 11.3
2007-02-16 08:33:55 51°10.509 2°41.942 248.3 13.5 246 11.3
2007-02-16 08:34:00 51°10.501 2°41.915 248.8 13.5 246 11.3
2007-02-16 08:34:05 51°10.494 2°41.888 248.8 13.5 246 11.3
2007-02-16 08:34:10 51°10.486 2°41.861 248.7 13.5 245 11.3
2007-02-16 08:34:15 51°10.478 2°41.834 248.4 13.4 246 11.3
2007-02-16 08:34:20 51°10.47 2°41.807 248.3 13.4 245 11.3
2007-02-16 08:34:25 51°10.463 2°41.78 248 13.5 245 11.3
2007-02-16 08:34:30 51°10.455 2°41.752 248.2 13.5 246 11.3
2007-02-16 08:34:34 51°10.449 2°41.731 248.4 13.4 246 11.3
2007-02-16 08:34:40 51°10.44 2°41.698 248.4 13.4 246 11.3
2007-02-16 08:34:45 51°10.432 2°41.671 248.3 13.5 245 11.2
2007-02-16 08:34:50 51°10.424 2°41.644 248.2 13.5 245 11.3
2007-02-16 08:34:55 51°10.417 2°41.617 248.2 13.5 246 11.2
2007-02-16 08:35:00 51°10.409 2°41.59 248.2 13.5 245 11.3
2007-02-16 08:35:05 51°10.401 2°41.563 248.6 13.5 246 11.2
2007-02-16 08:35:10 51°10.394 2°41.536 248.5 13.5 245 11.2
2007-02-16 08:35:15 51°10.386 2°41.509 248.4 13.4 245 11.2
2007-02-16 08:35:20 51°10.378 2°41.481 248.2 13.5 246 11.2
2007-02-16 08:35:25 51°10.37 2°41.454 248.2 13.5 245 11.2
2007-02-16 08:35:30 51°10.362 2°41.427 248.2 13.5 245 11.2
2007-02-16 08:35:35 51°10.354 2°41.401 248.1 13.5 245 11.2
2007-02-16 08:35:40 51°10.347 2°41.373 248.1 13.5 246 11.2
2007-02-16 08:35:45 51°10.339 2°41.346 248.4 13.5 246 11.2
2007-02-16 08:35:50 51°10.331 2°41.319 248.8 13.5 246 11.2
2007-02-16 08:35:55 51°10.324 2°41.292 248.6 13.5 246 11.2
2007-02-16 08:36:00 51°10.316 2°41.265 248.5 13.5 245 11.1
2007-02-16 08:36:05 51°10.308 2°41.238 248.1 13.5 245 11.2
2007-02-16 08:36:10 51°10.3 2°41.212 247.9 13.4 245 11.2
2007-02-16 08:36:15 51°10.292 2°41.185 247.9 13.4 245 11.2
2007-02-16 08:36:20 51°10.284 2°41.158 248.1 13.4 246 11.2
2007-02-16 08:36:25 51°10.277 2°41.131 248.5 13.4 245 11.2
2007-02-16 08:36:30 51°10.269 2°41.104 248.5 13.4 246 11.2
2007-02-16 08:36:35 51°10.261 2°41.077 248.4 13.4 245 11.2
2007-02-16 08:36:40 51°10.253 2°41.05 248.2 13.4 245 11.2
2007-02-16 08:36:45 51°10.245 2°41.023 248 13.4 245 11.2
2007-02-16 08:36:50 51°10.238 2°40.996 247.9 13.4 245 11.2
2007-02-16 08:36:54 51°10.231 2°40.975 248.2 13.4 245 11.1
2007-02-16 08:37:00 51°10.222 2°40.942 248.5 13.4 246 11.2
2007-02-16 08:37:05 51°10.215 2°40.915 248.6 13.4 246 11.2
2007-02-16 08:37:10 51°10.207 2°40.888 249.1 13.4 247 11.2
2007-02-16 08:37:14 51°10.201 2°40.866 249.5 13.4 246 11.2
2007-02-16 08:37:20 51°10.193 2°40.834 249.7 13.4 247 11.2
2007-02-16 08:37:25 51°10.185 2°40.807 250 13.4 247 11.1
2007-02-16 08:37:30 51°10.178 2°40.779 250 13.4 247 11.1
2007-02-16 08:37:35 51°10.17 2°40.752 249.8 13.4 246 11.2
2007-02-16 08:37:40 51°10.163 2°40.725 249.5 13.4 246 11.2
2007-02-16 08:37:45 51°10.156 2°40.698 249.1 13.4 246 11.2
2007-02-16 08:37:50 51°10.148 2°40.671 249.2 13.4 247 11.2
2007-02-16 08:37:55 51°10.141 2°40.644 249.5 13.4 247 11.2
2007-02-16 08:38:00 51°10.134 2°40.616 249.8 13.4 248 11.2
2007-02-16 08:38:05 51°10.128 2°40.589 250.4 13.4 249 11.2
2007-02-16 08:38:10 51°10.121 2°40.561 250.8 13.4 249 11.2
2007-02-16 08:38:15 51°10.114 2°40.534 250.5 13.4 248 11.2
2007-02-16 08:38:20 51°10.107 2°40.506 250 13.4 248 11.2
2007-02-16 08:38:25 51°10.1 2°40.479 249.6 13.4 247 11.2
2007-02-16 08:38:30 51°10.092 2°40.452 249.4 13.3 247 11.2
2007-02-16 08:38:35 51°10.085 2°40.425 249 13.3 246 11.2
2007-02-16 08:38:40 51°10.078 2°40.398 248.8 13.3 247 11.2
2007-02-16 08:38:45 51°10.071 2°40.371 248.5 13.3 246 11.2
2007-02-16 08:38:50 51°10.063 2°40.344 248.5 13.3 247 11.2
2007-02-16 08:38:55 51°10.056 2°40.317 248.8 13.3 247 11.2
2007-02-16 08:39:00 51°10.049 2°40.29 249.1 13.3 247 11.2
2007-02-16 08:39:05 51°10.042 2°40.263 249 13.3 247 11.3
2007-02-16 08:39:10 51°10.035 2°40.235 248.9 13.3 248 11.2
2007-02-16 08:39:15 51°10.028 2°40.208 249.2 13.3 247 11.2
2007-02-16 08:39:20 51°10.021 2°40.181 249.2 13.4 248 11.3
2007-02-16 08:39:25 51°10.014 2°40.154 249.1 13.3 247 11.2
2007-02-16 08:39:30 51°10.006 2°40.127 249.1 13.4 247 11.2
2007-02-16 08:39:35 51°9.999 2°40.1 249 13.3 247 11.3
2007-02-16 08:39:40 51°9.992 2°40.073 248.9 13.3 247 11.2
2007-02-16 08:39:45 51°9.984 2°40.045 248.9 13.4 247 11.2
2007-02-16 08:39:50 51°9.977 2°40.018 249.1 13.4 248 11.2
2007-02-16 08:39:55 51°9.97 2°39.991 249.4 13.4 247 11.2
2007-02-16 08:40:00 51°9.963 2°39.964 249.5 13.3 247 11.3
2007-02-16 08:40:05 51°9.956 2°39.937 249.4 13.3 247 11.2
2007-02-16 08:40:10 51°9.948 2°39.909 249.3 13.4 247 11.2
2007-02-16 08:40:15 51°9.941 2°39.883 249 13.3 247 11.3
2007-02-16 08:40:20 51°9.934 2°39.855 248.9 13.3 248 11.2
2007-02-16 08:40:25 51°9.927 2°39.828 249.1 13.3 247 11.3
2007-02-16 08:40:30 51°9.92 2°39.801 249.3 13.3 247 11.3
2007-02-16 08:40:35 51°9.912 2°39.774 248.8 13.3 247 11.3
2007-02-16 08:40:40 51°9.905 2°39.747 248.8 13.4 247 11.3
2007-02-16 08:40:45 51°9.898 2°39.72 248.9 13.4 247 11.3
2007-02-16 08:40:50 51°9.891 2°39.693 249.1 13.3 247 11.2
2007-02-16 08:40:55 51°9.883 2°39.666 249.1 13.3 247 11.2
2007-02-16 08:41:00 51°9.876 2°39.639 249.2 13.3 247 11.2
2007-02-16 08:41:05 51°9.868 2°39.612 249.2 13.3 247 11.2
2007-02-16 08:41:10 51°9.861 2°39.585 248.9 13.3 247 11.3
2007-02-16 08:41:15 51°9.854 2°39.557 248.8 13.3 247 11.3
2007-02-16 08:41:20 51°9.847 2°39.53 248.9 13.3 247 11.2
2007-02-16 08:41:25 51°9.84 2°39.504 249 13.3 247 11.3
2007-02-16 08:41:30 51°9.832 2°39.477 248.8 13.3 247 11.3
2007-02-16 08:41:35 51°9.825 2°39.45 248.8 13.3 247 11.3
2007-02-16 08:41:40 51°9.818 2°39.423 248.6 13.3 246 11.4
2007-02-16 08:41:45 51°9.811 2°39.396 248.3 13.3 247 11.3
2007-02-16 08:41:50 51°9.803 2°39.369 248.7 13.3 246 11.3
2007-02-16 08:41:55 51°9.796 2°39.342 248.7 13.3 247 11.3
2007-02-16 08:42:00 51°9.789 2°39.315 248.9 13.3 247 11.4
2007-02-16 08:42:05 51°9.782 2°39.288 249.2 13.3 247 11.4
2007-02-16 08:42:10 51°9.774 2°39.261 248.9 13.3 247 11.4
2007-02-16 08:42:15 51°9.767 2°39.234 249.1 13.3 247 11.5
2007-02-16 08:42:20 51°9.76 2°39.207 248.9 13.3 246 11.4
2007-02-16 08:42:25 51°9.753 2°39.18 248.7 13.3 247 11.4
2007-02-16 08:42:30 51°9.745 2°39.153 248.9 13.3 247 11.4
2007-02-16 08:42:35 51°9.738 2°39.126 248.9 13.3 248 11.4
2007-02-16 08:42:40 51°9.731 2°39.099 249.2 13.3 247 11.4
2007-02-16 08:42:45 51°9.724 2°39.072 249.2 13.3 248 11.4
2007-02-16 08:42:50 51°9.717 2°39.045 249.3 13.3 247 11.5
2007-02-16 08:42:55 51°9.71 2°39.018 249.3 13.2 248 11.5
2007-02-16 08:43:00 51°9.703 2°38.991 249.4 13.3 247 11.5
2007-02-16 08:43:05 51°9.696 2°38.964 249.1 13.3 247 11.5
2007-02-16 08:43:10 51°9.688 2°38.937 248.9 13.2 246 11.6
2007-02-16 08:43:15 51°9.681 2°38.91 248.6 13.2 247 11.6
2007-02-16 08:43:20 51°9.674 2°38.883 248.9 13.3 247 11.6
2007-02-16 08:43:25 51°9.667 2°38.856 249.1 13.3 248 11.6
2007-02-16 08:43:30 51°9.66 2°38.829 249.4 13.3 247 11.6
2007-02-16 08:43:35 51°9.653 2°38.802 249.4 13.3 247 11.6
2007-02-16 08:43:40 51°9.646 2°38.775 249.2 13.3 247 11.6
2007-02-16 08:43:45 51°9.638 2°38.749 249 13.2 247 11.6
2007-02-16 08:43:50 51°9.631 2°38.722 248.7 13.2 246 11.6
2007-02-16 08:43:55 51°9.624 2°38.695 248.5 13.2 246 11.6
2007-02-16 08:44:00 51°9.616 2°38.669 248.5 13.2 247 11.6
2007-02-16 08:44:05 51°9.609 2°38.642 248.5 13.2 246 11.7
2007-02-16 08:44:10 51°9.602 2°38.615 248.4 13.2 247 11.6
2007-02-16 08:44:14 51°9.596 2°38.594 248.5 13.2 247 11.6
2007-02-16 08:44:20 51°9.587 2°38.562 248.7 13.2 246 11.7
2007-02-16 08:44:25 51°9.58 2°38.535 248.5 13.2 246 11.6
2007-02-16 08:44:30 51°9.572 2°38.509 248.2 13.2 246 11.6
2007-02-16 08:44:35 51°9.565 2°38.482 248.1 13.2 247 11.7
2007-02-16 08:44:40 51°9.558 2°38.455 248.2 13.3 247 11.7
2007-02-16 08:44:45 51°9.551 2°38.428 248.8 13.3 247 11.6
2007-02-16 08:44:50 51°9.543 2°38.401 248.9 13.2 246 11.7
2007-02-16 08:44:55 51°9.536 2°38.374 248.7 13.3 247 11.7
2007-02-16 08:45:00 51°9.529 2°38.348 248.8 13.3 247 11.7
2007-02-16 08:45:05 51°9.522 2°38.32 248.9 13.3 247 11.7
2007-02-16 08:45:10 51°9.514 2°38.293 249.3 13.3 247 11.7
2007-02-16 08:45:15 51°9.507 2°38.266 249.3 13.3 247 11.7
2007-02-16 08:45:20 51°9.5 2°38.239 249.4 13.3 247 11.7
2007-02-16 08:45:25 51°9.493 2°38.212 249.5 13.3 247 11.7
2007-02-16 08:45:30 51°9.486 2°38.185 249.5 13.3 247 11.7
2007-02-16 08:45:35 51°9.479 2°38.158 249.3 13.3 247 11.7
2007-02-16 08:45:40 51°9.471 2°38.131 249.3 13.2 247 11.7
2007-02-16 08:45:45 51°9.464 2°38.104 249.3 13.3 247 11.7
2007-02-16 08:45:50 51°9.457 2°38.077 249.4 13.3 248 11.7
2007-02-16 08:45:55 51°9.45 2°38.051 249.6 13.2 247 11.7
2007-02-16 08:46:00 51°9.443 2°38.024 249.3 13.2 247 11.7
2007-02-16 08:46:05 51°9.436 2°37.997 249.3 13.3 247 11.7
2007-02-16 08:46:10 51°9.429 2°37.97 249.3 13.2 247 11.7
2007-02-16 08:46:15 51°9.421 2°37.943 249.2 13.2 247 11.7
2007-02-16 08:46:20 51°9.414 2°37.916 249.5 13.3 247 11.8
2007-02-16 08:46:25 51°9.407 2°37.889 249.5 13.3 247 11.8
2007-02-16 08:46:30 51°9.4 2°37.862 249.5 13.2 247 11.8
2007-02-16 08:46:35 51°9.394 2°37.835 250.1 13.2 249 11.8
2007-02-16 08:46:40 51°9.387 2°37.807 250.7 13.2 249 11.8
2007-02-16 08:46:45 51°9.381 2°37.78 251.6 13.3 250 11.8
2007-02-16 08:46:50 51°9.375 2°37.752 252.3 13.2 250 11.8
2007-02-16 08:46:55 51°9.369 2°37.725 252.8 13.2 251 11.8
2007-02-16 08:47:00 51°9.363 2°37.697 252.8 13.2 251 11.8
2007-02-16 08:47:05 51°9.356 2°37.67 252.9 13.2 250 11.9
2007-02-16 08:47:10 51°9.35 2°37.642 252.6 13.2 250 11.9
2007-02-16 08:47:15 51°9.344 2°37.615 252.3 13.2 250 11.9
2007-02-16 08:47:20 51°9.337 2°37.587 252.3 13.3 249 11.9
2007-02-16 08:47:25 51°9.331 2°37.56 252.3 13.2 250 11.9
2007-02-16 08:47:30 51°9.325 2°37.533 252.3 13.2 250 12
2007-02-16 08:47:35 51°9.318 2°37.505 252.1 13.2 250 12
2007-02-16 08:47:40 51°9.312 2°37.478 252.3 13.2 250 12
2007-02-16 08:47:45 51°9.306 2°37.45 252.5 13.2 250 12
2007-02-16 08:47:50 51°9.3 2°37.423 252.5 13.3 250 12
2007-02-16 08:47:55 51°9.294 2°37.395 252.6 13.2 251 12.1
2007-02-16 08:48:00 51°9.287 2°37.368 252.8 13.2 250 12.1
2007-02-16 08:48:05 51°9.281 2°37.34 252.8 13.2 250 12.1
2007-02-16 08:48:10 51°9.275 2°37.313 252.5 13.3 250 12.1
2007-02-16 08:48:15 51°9.269 2°37.285 252.5 13.3 250 12.2
2007-02-16 08:48:20 51°9.262 2°37.258 252.3 13.3 250 12.2
2007-02-16 08:48:25 51°9.256 2°37.231 252.3 13.2 250 12.2
2007-02-16 08:48:30 51°9.25 2°37.203 252.5 13.2 250 12.2
2007-02-16 08:48:35 51°9.244 2°37.176 252.5 13.2 250 12.3
2007-02-16 08:48:40 51°9.237 2°37.148 252.5 13.2 250 12.3
2007-02-16 08:48:45 51°9.231 2°37.12 252.8 13.2 251 12.3
2007-02-16 08:48:50 51°9.225 2°37.093 252.7 13.2 250 12.4
2007-02-16 08:48:54 51°9.22 2°37.071 252.6 13.3 250 12.3
2007-02-16 08:49:00 51°9.213 2°37.038 252.5 13.2 250 12.4
2007-02-16 08:49:05 51°9.206 2°37.011 252.2 13.2 250 12.4
2007-02-16 08:49:10 51°9.2 2°36.983 252.4 13.2 250 12.4
2007-02-16 08:49:15 51°9.194 2°36.956 252.5 13.2 251 12.5
2007-02-16 08:49:20 51°9.188 2°36.928 252.5 13.2 250 12.5
2007-02-16 08:49:25 51°9.181 2°36.901 252.6 13.2 250 12.5
2007-02-16 08:49:30 51°9.175 2°36.873 252.5 13.2 250 12.5
2007-02-16 08:49:35 51°9.169 2°36.846 252.5 13.2 251 12.5
2007-02-16 08:49:40 51°9.163 2°36.818 252.5 13.2 250 12.5
2007-02-16 08:49:45 51°9.156 2°36.791 252.6 13.3 250 12.6
2007-02-16 08:49:50 51°9.15 2°36.763 253 13.2 250 12.7
2007-02-16 08:49:55 51°9.144 2°36.736 252.5 13.2 251 12.7
2007-02-16 08:50:00 51°9.138 2°36.708 252.8 13.2 250 12.7
2007-02-16 08:50:05 51°9.132 2°36.681 252.8 13.2 250 12.8
2007-02-16 08:50:10 51°9.125 2°36.654 252.5 13.2 250 12.8
2007-02-16 08:50:15 51°9.119 2°36.626 252.4 13.2 250 12.8
2007-02-16 08:50:20 51°9.112 2°36.599 252.3 13.2 250 12.8
2007-02-16 08:50:25 51°9.106 2°36.572 252.4 13.2 250 12.9
2007-02-16 08:50:30 51°9.1 2°36.544 252.8 13.2 251 12.9
2007-02-16 08:50:35 51°9.095 2°36.517 253 13.2 251 12.9
2007-02-16 08:50:40 51°9.088 2°36.489 253.2 13.1 250 13
2007-02-16 08:50:45 51°9.082 2°36.462 252.5 13.2 250 13
2007-02-16 08:50:50 51°9.076 2°36.435 252.5 13.2 250 13.1
2007-02-16 08:50:55 51°9.07 2°36.407 252.8 13.2 251 13.1
2007-02-16 08:51:00 51°9.064 2°36.38 253.1 13.2 251 13.2
2007-02-16 08:51:05 51°9.058 2°36.353 253.1 13.1 250 13.4
2007-02-16 08:51:10 51°9.051 2°36.326 252.5 13.1 250 13.4
2007-02-16 08:51:15 51°9.045 2°36.298 252.5 13.1 250 13.4
2007-02-16 08:51:20 51°9.039 2°36.271 252.4 13.1 250 13.5
2007-02-16 08:51:25 51°9.033 2°36.244 252.5 13.2 250 13.6
2007-02-16 08:51:30 51°9.027 2°36.216 252.6 13.1 251 13.6
2007-02-16 08:51:35 51°9.021 2°36.189 253 13.1 250 13.7
2007-02-16 08:51:40 51°9.015 2°36.162 253.1 13.1 250 13.8
2007-02-16 08:51:45 51°9.008 2°36.135 252.6 13.1 250 13.9
2007-02-16 08:51:50 51°9.002 2°36.108 252.5 13.1 250 13.9
2007-02-16 08:51:55 51°8.996 2°36.083 252.3 12.4 249 13.9
2007-02-16 08:52:00 51°8.99 2°36.059 252.3 11.5 250 14
2007-02-16 08:52:05 51°8.985 2°36.037 252.2 10.8 249 14.1
2007-02-16 08:52:10 51°8.98 2°36.016 251.5 10.1 249 14.2
2007-02-16 08:52:15 51°8.976 2°35.997 251 9.3 249 14.3
2007-02-16 08:52:20 51°8.973 2°35.979 252.2 8.6 254 14.3
2007-02-16 08:52:25 51°8.972 2°35.962 258.1 8 262 14.4
2007-02-16 08:52:30 51°8.972 2°35.946 265.4 7.4 270 14.6
2007-02-16 08:52:35 51°8.974 2°35.931 273 6.9 278 14.8
2007-02-16 08:52:40 51°8.977 2°35.918 280.6 6.5 286 14.9
2007-02-16 08:52:45 51°8.98 2°35.906 288.1 6.1 294 15.1
2007-02-16 08:52:50 51°8.985 2°35.895 295.7 5.8 301 15.3
2007-02-16 08:52:54 51°8.989 2°35.887 302.8 5.6 309 15.5
2007-02-16 08:53:00 51°8.996 2°35.877 311.1 5.5 316 15.7
2007-02-16 08:53:05 51°9.002 2°35.871 316.5 5.3 323 15.8
2007-02-16 08:53:10 51°9.008 2°35.865 323.6 5.1 330 15.9
2007-02-16 08:53:15 51°9.015 2°35.861 330.2 5.1 337 16.1
2007-02-16 08:53:20 51°9.021 2°35.858 336.7 5 344 16.2
2007-02-16 08:53:25 51°9.028 2°35.856 343 5 349 16.2
2007-02-16 08:53:30 51°9.035 2°35.855 349.1 5 355 16.4
2007-02-16 08:53:35 51°9.042 2°35.855 354.1 5.1 358 16.5
2007-02-16 08:53:40 51°9.049 2°35.855 358.4 5.1 3 16.6
2007-02-16 08:53:45 51°9.055 2°35.857 3.6 5 8 16.7
2007-02-16 08:53:50 51°9.062 2°35.859 9.2 5 12 16.8
2007-02-16 08:53:55 51°9.068 2°35.863 15.2 4.9 19 16.8
2007-02-16 08:54:00 51°9.074 2°35.868 21.7 4.8 23 16.8
2007-02-16 08:54:05 51°9.08 2°35.873 27.6 4.8 29 16.9
2007-02-16 08:54:10 51°9.086 2°35.879 33.1 4.9 33 16.9
2007-02-16 08:54:15 51°9.091 2°35.885 37.3 4.9 37 17
2007-02-16 08:54:20 51°9.096 2°35.892 41.3 4.9 39 17
2007-02-16 08:54:25 51°9.101 2°35.9 45.3 4.9 43 17.1
2007-02-16 08:54:30 51°9.106 2°35.908 48.6 5 45 17.2
2007-02-16 08:54:35 51°9.111 2°35.916 50.5 5 46 17.2
2007-02-16 08:54:40 51°9.116 2°35.924 51.4 5.1 47 17.2
2007-02-16 08:54:45 51°9.121 2°35.932 52.1 5.2 47 17.2
2007-02-16 08:54:50 51°9.126 2°35.941 52.3 5.3 48 17.2
2007-02-16 08:54:55 51°9.131 2°35.95 52.4 5.4 48 17.2
2007-02-16 08:55:00 51°9.136 2°35.959 52.3 5.5 49 17.2
2007-02-16 08:55:05 51°9.141 2°35.968 51.8 5.7 48 17.2
2007-02-16 08:55:10 51°9.147 2°35.978 50.9 5.8 47 17.2
2007-02-16 08:55:15 51°9.153 2°35.987 49.9 5.9 46 17.2
2007-02-16 08:55:20 51°9.159 2°35.996 48.7 5.9 45 17.3
2007-02-16 08:55:25 51°9.165 2°36.005 47.4 6 44 17.2
2007-02-16 08:55:30 51°9.171 2°36.014 46 6.1 43 17.2
2007-02-16 08:55:35 51°9.177 2°36.023 44.9 6.1 42 17.3
2007-02-16 08:55:40 51°9.184 2°36.032 43.8 6.2 42 17.2
2007-02-16 08:55:45 51°9.19 2°36.042 43 6.3 41 17.2
2007-02-16 08:55:50 51°9.197 2°36.051 42.6 6.3 41 17.2
2007-02-16 08:55:55 51°9.204 2°36.06 42.2 6.4 40 17.2
2007-02-16 08:56:00 51°9.21 2°36.069 42 6.4 40 17.2
2007-02-16 08:56:05 51°9.217 2°36.078 41.9 6.4 40 17.2
2007-02-16 08:56:10 51°9.224 2°36.087 42.1 6.5 40 17.2
2007-02-16 08:56:15 51°9.231 2°36.096 42.5 6.5 40 17.2
2007-02-16 08:56:20 51°9.237 2°36.105 42.9 6.3 40 17.2
2007-02-16 08:56:25 51°9.244 2°36.114 43.5 6.1 41 17.1
2007-02-16 08:56:30 51°9.25 2°36.123 44.6 5.9 42 17.1
2007-02-16 08:56:35 51°9.255 2°36.132 46.4 5.7 45 17.2
2007-02-16 08:56:40 51°9.261 2°36.141 48.7 5.6 46 17.1
2007-02-16 08:56:45 51°9.266 2°36.149 51.3 5.4 48 17.2
2007-02-16 08:56:50 51°9.27 2°36.158 53.2 5.2 49 17.2
2007-02-16 08:56:55 51°9.275 2°36.166 54.5 5 50 17.2
2007-02-16 08:57:00 51°9.279 2°36.174 55.1 4.8 50 17.2
2007-02-16 08:57:05 51°9.283 2°36.182 55 4.6 49 17.2
2007-02-16 08:57:10 51°9.287 2°36.189 54 4.5 49 17.2
2007-02-16 08:57:15 51°9.291 2°36.196 52.9 4.3 47 17.1
2007-02-16 08:57:20 51°9.295 2°36.203 51.7 4.2 47 17.1
2007-02-16 08:57:25 51°9.299 2°36.209 50.1 4.1 45 17.2
2007-02-16 08:57:30 51°9.303 2°36.215 48.7 3.9 44 17.1
2007-02-16 08:57:35 51°9.307 2°36.221 47.1 3.8 44 17.1
2007-02-16 08:57:40 51°9.31 2°36.226 45.8 3.5 43 17.2
2007-02-16 08:57:45 51°9.314 2°36.231 45.5 3.2 43 17.1
2007-02-16 08:57:50 51°9.316 2°36.235 47.6 2.8 45 17.1
2007-02-16 08:57:55 51°9.318 2°36.239 51 2.5 47 17
2007-02-16 08:58:00 51°9.321 2°36.242 54.6 2.2 48 17
2007-02-16 08:58:05 51°9.322 2°36.245 58.5 1.8 47 17.1
2007-02-16 08:58:10 51°9.324 2°36.247 62.4 1.5 45 17.1
2007-02-16 08:58:15 51°9.325 2°36.249 65.8 1.1 38 17.1
2007-02-16 08:58:20 51°9.326 2°36.25 68.4 0.9 26 17
2007-02-16 08:58:25 51°9.327 2°36.25 70.4 0.8 14 17
2007-02-16 08:58:30 51°9.328 2°36.251 71.7 0.8 13 17
2007-02-16 08:58:35 51°9.329 2°36.251 72.1 0.8 11 17
2007-02-16 08:58:40 51°9.33 2°36.251 71.8 0.8 12 17
2007-02-16 08:58:45 51°9.331 2°36.252 71.2 0.8 12 17
2007-02-16 08:58:50 51°9.332 2°36.252 70.4 0.8 11 17
2007-02-16 08:58:55 51°9.333 2°36.252 69.3 0.8 13 17
2007-02-16 08:59:00 51°9.334 2°36.253 68.2 0.8 12 17
2007-02-16 08:59:05 51°9.335 2°36.253 66.9 0.8 14 17
2007-02-16 08:59:10 51°9.337 2°36.254 65.9 0.8 14 17
2007-02-16 08:59:15 51°9.338 2°36.254 64.7 0.8 14 17
2007-02-16 08:59:20 51°9.339 2°36.254 63.8 0.8 10 17
2007-02-16 08:59:25 51°9.34 2°36.255 62.6 0.8 10 17
2007-02-16 08:59:30 51°9.341 2°36.255 61.7 0.8 10 17
2007-02-16 08:59:35 51°9.342 2°36.255 60.9 0.7 15 17
2007-02-16 08:59:40 51°9.343 2°36.256 60 0.8 11 17
2007-02-16 08:59:45 51°9.344 2°36.256 59 0.8 10 17
2007-02-16 08:59:50 51°9.345 2°36.256 58.1 0.9 10 17.2
2007-02-16 08:59:54 51°9.346 2°36.257 57.2 0.8 11 17.1
2007-02-16 09:00:00 51°9.348 2°36.257 56.3 0.8 12 17
2007-02-16 09:00:05 51°9.349 2°36.257 55.7 0.8 11 16.9
2007-02-16 09:00:10 51°9.35 2°36.258 55.1 0.8 10 16.9
2007-02-16 09:00:15 51°9.351 2°36.258 54.5 0.8 13 17.2
2007-02-16 09:00:20 51°9.352 2°36.258 54.2 0.8 12 17.2
2007-02-16 09:00:25 51°9.353 2°36.259 53.7 0.8 13 17.3
2007-02-16 09:00:30 51°9.354 2°36.259 53.4 0.8 13 17.2
2007-02-16 09:00:35 51°9.355 2°36.26 53.2 0.8 14 17.2
2007-02-16 09:00:40 51°9.356 2°36.26 52.9 0.8 13 17.1
2007-02-16 09:00:45 51°9.358 2°36.261 52.6 0.8 13 17.2
2007-02-16 09:00:50 51°9.359 2°36.261 52.4 0.8 13 17.4
2007-02-16 09:00:55 51°9.36 2°36.261 52.4 0.8 14 17.4
2007-02-16 09:01:00 51°9.361 2°36.262 52.2 0.8 15 17.3
2007-02-16 09:01:05 51°9.362 2°36.262 52.2 0.8 15 17.2
2007-02-16 09:01:10 51°9.363 2°36.263 52.1 0.8 14 17.1
2007-02-16 09:01:15 51°9.364 2°36.263 52.1 0.8 16 17
2007-02-16 09:01:20 51°9.365 2°36.264 52.2 0.8 18 17.2
2007-02-16 09:01:25 51°9.366 2°36.264 52.2 0.8 14 17.5
2007-02-16 09:01:30 51°9.368 2°36.265 52.3 0.8 17 17.5
2007-02-16 09:01:35 51°9.369 2°36.265 52.5 0.8 14 17.5